sensor_id;sensor_type;location;lat;lon;timestamp;P1;durP1;ratioP1;P2;durP2;ratioP2
76290;SDS011;65100;46.884;17.410;2023-07-20T00:00:29;7.50;;;2.78;;
76290;SDS011;65100;46.884;17.410;2023-07-20T00:03:09;7.53;;;2.70;;
76290;SDS011;65100;46.884;17.410;2023-07-20T00:05:35;7.55;;;2.60;;
76290;SDS011;65100;46.884;17.410;2023-07-20T00:08:00;11.70;;;2.70;;
76290;SDS011;65100;46.884;17.410;2023-07-20T00:10:26;6.72;;;2.55;;
76290;SDS011;65100;46.884;17.410;2023-07-20T00:12:51;8.47;;;2.63;;
76290;SDS011;65100;46.884;17.410;2023-07-20T00:15:17;10.27;;;2.67;;
76290;SDS011;65100;46.884;17.410;2023-07-20T00:17:42;7.45;;;2.80;;
76290;SDS011;65100;46.884;17.410;2023-07-20T00:20:10;6.90;;;2.90;;
76290;SDS011;65100;46.884;17.410;2023-07-20T00:22:36;8.38;;;2.97;;
76290;SDS011;65100;46.884;17.410;2023-07-20T00:25:02;8.67;;;3.10;;
76290;SDS011;65100;46.884;17.410;2023-07-20T00:27:27;9.00;;;3.15;;
76290;SDS011;65100;46.884;17.410;2023-07-20T00:29:53;8.70;;;3.20;;
76290;SDS011;65100;46.884;17.410;2023-07-20T00:32:18;7.67;;;3.07;;
76290;SDS011;65100;46.884;17.410;2023-07-20T00:34:44;6.27;;;2.73;;
76290;SDS011;65100;46.884;17.410;2023-07-20T00:37:09;7.63;;;2.83;;
76290;SDS011;65100;46.884;17.410;2023-07-20T00:39:35;6.65;;;2.70;;
76290;SDS011;65100;46.884;17.410;2023-07-20T00:42:00;7.97;;;2.80;;
76290;SDS011;65100;46.884;17.410;2023-07-20T00:44:26;6.78;;;2.63;;
76290;SDS011;65100;46.884;17.410;2023-07-20T00:46:51;7.80;;;2.67;;
76290;SDS011;65100;46.884;17.410;2023-07-20T00:49:17;8.13;;;2.77;;
76290;SDS011;65100;46.884;17.410;2023-07-20T00:51:46;6.95;;;2.72;;
76290;SDS011;65100;46.884;17.410;2023-07-20T00:54:12;7.03;;;2.90;;
76290;SDS011;65100;46.884;17.410;2023-07-20T00:56:38;8.77;;;2.70;;
76290;SDS011;65100;46.884;17.410;2023-07-20T00:59:04;6.32;;;2.80;;
76290;SDS011;65100;46.884;17.410;2023-07-20T01:01:31;6.75;;;2.63;;
76290;SDS011;65100;46.884;17.410;2023-07-20T01:03:57;7.03;;;3.00;;
76290;SDS011;65100;46.884;17.410;2023-07-20T01:09:02;7.80;;;2.97;;
76290;SDS011;65100;46.884;17.410;2023-07-20T01:14:45;9.85;;;2.80;;
76290;SDS011;65100;46.884;17.410;2023-07-20T01:17:11;7.78;;;2.80;;
76290;SDS011;65100;46.884;17.410;2023-07-20T01:19:37;7.10;;;2.70;;
76290;SDS011;65100;46.884;17.410;2023-07-20T01:22:09;8.45;;;2.80;;
76290;SDS011;65100;46.884;17.410;2023-07-20T01:25:04;9.30;;;2.80;;
76290;SDS011;65100;46.884;17.410;2023-07-20T01:27:57;8.60;;;2.90;;
76290;SDS011;65100;46.884;17.410;2023-07-20T01:33:37;6.47;;;2.87;;
76290;SDS011;65100;46.884;17.410;2023-07-20T01:36:04;6.65;;;2.83;;
76290;SDS011;65100;46.884;17.410;2023-07-20T01:38:31;6.97;;;2.63;;
76290;SDS011;65100;46.884;17.410;2023-07-20T01:40:57;6.80;;;2.60;;
76290;SDS011;65100;46.884;17.410;2023-07-20T01:43:23;6.77;;;2.70;;
76290;SDS011;65100;46.884;17.410;2023-07-20T01:45:48;6.50;;;2.80;;
76290;SDS011;65100;46.884;17.410;2023-07-20T01:48:14;6.47;;;2.90;;
76290;SDS011;65100;46.884;17.410;2023-07-20T01:50:39;6.55;;;2.80;;
76290;SDS011;65100;46.884;17.410;2023-07-20T01:53:05;7.87;;;2.90;;
76290;SDS011;65100;46.884;17.410;2023-07-20T01:55:30;7.77;;;2.70;;
76290;SDS011;65100;46.884;17.410;2023-07-20T01:57:56;6.88;;;2.75;;
76290;SDS011;65100;46.884;17.410;2023-07-20T02:00:22;7.60;;;2.63;;
76290;SDS011;65100;46.884;17.410;2023-07-20T02:02:50;6.27;;;2.80;;
76290;SDS011;65100;46.884;17.410;2023-07-20T02:05:16;7.22;;;2.90;;
76290;SDS011;65100;46.884;17.410;2023-07-20T02:07:42;7.85;;;2.95;;
76290;SDS011;65100;46.884;17.410;2023-07-20T02:10:08;6.15;;;2.70;;
76290;SDS011;65100;46.884;17.410;2023-07-20T02:12:34;7.20;;;2.97;;
76290;SDS011;65100;46.884;17.410;2023-07-20T02:15:00;7.63;;;3.00;;
76290;SDS011;65100;46.884;17.410;2023-07-20T02:17:27;6.63;;;2.75;;
76290;SDS011;65100;46.884;17.410;2023-07-20T02:19:52;7.03;;;2.53;;
76290;SDS011;65100;46.884;17.410;2023-07-20T02:22:19;7.28;;;2.78;;
76290;SDS011;65100;46.884;17.410;2023-07-20T02:24:44;7.87;;;2.87;;
76290;SDS011;65100;46.884;17.410;2023-07-20T02:27:13;7.20;;;2.65;;
76290;SDS011;65100;46.884;17.410;2023-07-20T02:29:47;7.37;;;2.63;;
76290;SDS011;65100;46.884;17.410;2023-07-20T02:32:13;7.60;;;2.90;;
76290;SDS011;65100;46.884;17.410;2023-07-20T02:34:39;8.10;;;2.90;;
76290;SDS011;65100;46.884;17.410;2023-07-20T02:37:05;8.75;;;2.85;;
76290;SDS011;65100;46.884;17.410;2023-07-20T02:39:30;7.00;;;2.70;;
76290;SDS011;65100;46.884;17.410;2023-07-20T02:41:56;6.67;;;2.63;;
76290;SDS011;65100;46.884;17.410;2023-07-20T02:44:24;8.50;;;3.00;;
76290;SDS011;65100;46.884;17.410;2023-07-20T02:46:50;6.00;;;2.50;;
76290;SDS011;65100;46.884;17.410;2023-07-20T02:49:15;6.43;;;2.90;;
76290;SDS011;65100;46.884;17.410;2023-07-20T02:51:41;6.73;;;2.70;;
76290;SDS011;65100;46.884;17.410;2023-07-20T02:54:07;6.80;;;2.90;;
76290;SDS011;65100;46.884;17.410;2023-07-20T02:56:33;7.28;;;2.78;;
76290;SDS011;65100;46.884;17.410;2023-07-20T02:58:58;8.03;;;3.00;;
76290;SDS011;65100;46.884;17.410;2023-07-20T03:01:24;6.67;;;2.80;;
76290;SDS011;65100;46.884;17.410;2023-07-20T03:03:49;7.90;;;2.72;;
76290;SDS011;65100;46.884;17.410;2023-07-20T03:06:15;8.80;;;3.00;;
76290;SDS011;65100;46.884;17.410;2023-07-20T03:08:41;7.95;;;2.88;;
76290;SDS011;65100;46.884;17.410;2023-07-20T03:11:12;10.75;;;3.00;;
76290;SDS011;65100;46.884;17.410;2023-07-20T03:13:39;8.10;;;3.00;;
76290;SDS011;65100;46.884;17.410;2023-07-20T03:16:04;6.97;;;3.00;;
76290;SDS011;65100;46.884;17.410;2023-07-20T03:18:30;9.10;;;3.20;;
76290;SDS011;65100;46.884;17.410;2023-07-20T03:20:55;8.07;;;3.10;;
76290;SDS011;65100;46.884;17.410;2023-07-20T03:23:21;8.45;;;3.20;;
76290;SDS011;65100;46.884;17.410;2023-07-20T03:25:47;7.47;;;3.00;;
76290;SDS011;65100;46.884;17.410;2023-07-20T03:28:12;8.07;;;3.35;;
76290;SDS011;65100;46.884;17.410;2023-07-20T03:30:38;9.47;;;3.40;;
76290;SDS011;65100;46.884;17.410;2023-07-20T03:33:03;9.70;;;3.27;;
76290;SDS011;65100;46.884;17.410;2023-07-20T03:35:29;8.33;;;3.40;;
76290;SDS011;65100;46.884;17.410;2023-07-20T03:37:54;8.98;;;3.15;;
76290;SDS011;65100;46.884;17.410;2023-07-20T03:40:20;8.80;;;2.90;;
76290;SDS011;65100;46.884;17.410;2023-07-20T03:42:49;8.82;;;3.63;;
76290;SDS011;65100;46.884;17.410;2023-07-20T03:45:15;9.35;;;3.40;;
76290;SDS011;65100;46.884;17.410;2023-07-20T03:47:40;9.13;;;3.50;;
76290;SDS011;65100;46.884;17.410;2023-07-20T03:50:06;8.05;;;3.78;;
76290;SDS011;65100;46.884;17.410;2023-07-20T03:52:32;8.23;;;3.47;;
76290;SDS011;65100;46.884;17.410;2023-07-20T03:54:57;6.80;;;2.87;;
76290;SDS011;65100;46.884;17.410;2023-07-20T03:57:23;7.90;;;3.20;;
76290;SDS011;65100;46.884;17.410;2023-07-20T03:59:48;6.77;;;3.10;;
76290;SDS011;65100;46.884;17.410;2023-07-20T04:02:17;7.65;;;3.33;;
76290;SDS011;65100;46.884;17.410;2023-07-20T04:04:42;7.37;;;3.30;;
76290;SDS011;65100;46.884;17.410;2023-07-20T04:07:08;7.57;;;3.30;;
76290;SDS011;65100;46.884;17.410;2023-07-20T04:09:34;8.77;;;3.60;;
76290;SDS011;65100;46.884;17.410;2023-07-20T04:11:59;8.67;;;3.70;;
76290;SDS011;65100;46.884;17.410;2023-07-20T04:14:25;8.70;;;4.00;;
76290;SDS011;65100;46.884;17.410;2023-07-20T04:16:51;8.63;;;3.75;;
76290;SDS011;65100;46.884;17.410;2023-07-20T04:19:19;8.93;;;3.88;;
76290;SDS011;65100;46.884;17.410;2023-07-20T04:21:44;8.53;;;3.53;;
76290;SDS011;65100;46.884;17.410;2023-07-20T04:24:10;10.00;;;3.70;;
76290;SDS011;65100;46.884;17.410;2023-07-20T04:26:35;11.53;;;3.80;;
76290;SDS011;65100;46.884;17.410;2023-07-20T04:29:02;8.70;;;3.70;;
76290;SDS011;65100;46.884;17.410;2023-07-20T04:31:28;8.48;;;3.70;;
76290;SDS011;65100;46.884;17.410;2023-07-20T04:33:54;7.33;;;3.60;;
76290;SDS011;65100;46.884;17.410;2023-07-20T04:36:20;7.53;;;3.20;;
76290;SDS011;65100;46.884;17.410;2023-07-20T04:38:46;9.17;;;3.30;;
76290;SDS011;65100;46.884;17.410;2023-07-20T04:41:11;7.25;;;3.15;;
76290;SDS011;65100;46.884;17.410;2023-07-20T04:43:40;7.50;;;3.50;;
76290;SDS011;65100;46.884;17.410;2023-07-20T04:46:07;8.95;;;3.40;;
76290;SDS011;65100;46.884;17.410;2023-07-20T04:48:33;8.80;;;3.37;;
76290;SDS011;65100;46.884;17.410;2023-07-20T04:50:58;7.90;;;3.53;;
76290;SDS011;65100;46.884;17.410;2023-07-20T04:53:23;8.93;;;3.30;;
76290;SDS011;65100;46.884;17.410;2023-07-20T04:55:49;7.10;;;3.30;;
76290;SDS011;65100;46.884;17.410;2023-07-20T04:58:17;7.63;;;3.47;;
76290;SDS011;65100;46.884;17.410;2023-07-20T05:00:43;10.52;;;3.63;;
76290;SDS011;65100;46.884;17.410;2023-07-20T05:03:09;7.70;;;3.70;;
76290;SDS011;65100;46.884;17.410;2023-07-20T05:05:35;7.50;;;3.60;;
76290;SDS011;65100;46.884;17.410;2023-07-20T05:08:00;7.80;;;3.70;;
76290;SDS011;65100;46.884;17.410;2023-07-20T05:10:26;10.47;;;3.90;;
76290;SDS011;65100;46.884;17.410;2023-07-20T05:12:51;9.33;;;4.13;;
76290;SDS011;65100;46.884;17.410;2023-07-20T05:15:16;9.70;;;4.20;;
76290;SDS011;65100;46.884;17.410;2023-07-20T05:17:42;8.57;;;3.97;;
76290;SDS011;65100;46.884;17.410;2023-07-20T05:20:08;9.93;;;4.18;;
76290;SDS011;65100;46.884;17.410;2023-07-20T05:22:37;9.47;;;4.23;;
76290;SDS011;65100;46.884;17.410;2023-07-20T05:25:05;9.50;;;4.25;;
76290;SDS011;65100;46.884;17.410;2023-07-20T05:27:36;8.63;;;4.43;;
76290;SDS011;65100;46.884;17.410;2023-07-20T05:30:02;10.13;;;4.45;;
76290;SDS011;65100;46.884;17.410;2023-07-20T05:32:28;9.68;;;4.70;;
76290;SDS011;65100;46.884;17.410;2023-07-20T05:34:53;10.53;;;4.80;;
76290;SDS011;65100;46.884;17.410;2023-07-20T05:37:19;9.50;;;4.83;;
76290;SDS011;65100;46.884;17.410;2023-07-20T05:39:45;9.70;;;4.60;;
76290;SDS011;65100;46.884;17.410;2023-07-20T05:42:11;18.85;;;5.40;;
76290;SDS011;65100;46.884;17.410;2023-07-20T05:44:37;8.60;;;4.60;;
76290;SDS011;65100;46.884;17.410;2023-07-20T05:47:03;11.30;;;4.53;;
76290;SDS011;65100;46.884;17.410;2023-07-20T05:49:29;11.32;;;4.65;;
76290;SDS011;65100;46.884;17.410;2023-07-20T05:51:55;8.15;;;4.40;;
76290;SDS011;65100;46.884;17.410;2023-07-20T05:54:23;9.23;;;4.73;;
76290;SDS011;65100;46.884;17.410;2023-07-20T05:56:50;8.55;;;4.50;;
76290;SDS011;65100;46.884;17.410;2023-07-20T05:59:15;9.47;;;4.90;;
76290;SDS011;65100;46.884;17.410;2023-07-20T06:01:41;12.68;;;4.80;;
76290;SDS011;65100;46.884;17.410;2023-07-20T06:04:08;14.00;;;4.80;;
76290;SDS011;65100;46.884;17.410;2023-07-20T06:06:33;9.93;;;4.50;;
76290;SDS011;65100;46.884;17.410;2023-07-20T06:08:59;12.70;;;4.83;;
76290;SDS011;65100;46.884;17.410;2023-07-20T06:11:29;13.30;;;4.95;;
76290;SDS011;65100;46.884;17.410;2023-07-20T06:13:55;10.50;;;4.88;;
76290;SDS011;65100;46.884;17.410;2023-07-20T06:16:21;9.93;;;4.50;;
76290;SDS011;65100;46.884;17.410;2023-07-20T06:18:46;11.13;;;4.80;;
76290;SDS011;65100;46.884;17.410;2023-07-20T06:21:33;9.07;;;4.40;;
76290;SDS011;65100;46.884;17.410;2023-07-20T06:24:01;11.33;;;4.77;;
76290;SDS011;65100;46.884;17.410;2023-07-20T06:26:26;10.30;;;4.60;;
76290;SDS011;65100;46.884;17.410;2023-07-20T06:28:53;10.50;;;4.50;;
76290;SDS011;65100;46.884;17.410;2023-07-20T06:31:19;10.30;;;4.77;;
76290;SDS011;65100;46.884;17.410;2023-07-20T06:33:44;9.50;;;5.20;;
76290;SDS011;65100;46.884;17.410;2023-07-20T06:36:10;10.50;;;5.00;;
76290;SDS011;65100;46.884;17.410;2023-07-20T06:38:36;8.80;;;4.90;;
76290;SDS011;65100;46.884;17.410;2023-07-20T06:41:02;10.45;;;5.00;;
76290;SDS011;65100;46.884;17.410;2023-07-20T06:43:27;10.30;;;4.90;;
76290;SDS011;65100;46.884;17.410;2023-07-20T06:45:52;8.85;;;4.63;;
76290;SDS011;65100;46.884;17.410;2023-07-20T06:48:18;9.10;;;4.47;;
76290;SDS011;65100;46.884;17.410;2023-07-20T06:50:45;9.10;;;4.82;;
76290;SDS011;65100;46.884;17.410;2023-07-20T06:53:11;8.87;;;4.63;;
76290;SDS011;65100;46.884;17.410;2023-07-20T06:55:36;8.32;;;4.38;;
76290;SDS011;65100;46.884;17.410;2023-07-20T06:58:01;8.30;;;4.20;;
76290;SDS011;65100;46.884;17.410;2023-07-20T07:00:28;8.75;;;4.18;;
76290;SDS011;65100;46.884;17.410;2023-07-20T07:02:53;8.63;;;4.20;;
76290;SDS011;65100;46.884;17.410;2023-07-20T07:05:19;8.60;;;4.50;;
76290;SDS011;65100;46.884;17.410;2023-07-20T07:07:44;8.48;;;4.40;;
76290;SDS011;65100;46.884;17.410;2023-07-20T07:10:10;9.37;;;4.23;;
76290;SDS011;65100;46.884;17.410;2023-07-20T07:12:38;9.47;;;4.33;;
76290;SDS011;65100;46.884;17.410;2023-07-20T07:15:04;8.25;;;4.25;;
76290;SDS011;65100;46.884;17.410;2023-07-20T07:17:33;8.27;;;4.00;;
76290;SDS011;65100;46.884;17.410;2023-07-20T07:19:58;7.97;;;4.10;;
76290;SDS011;65100;46.884;17.410;2023-07-20T07:22:32;9.90;;;4.50;;
76290;SDS011;65100;46.884;17.410;2023-07-20T07:24:58;8.15;;;4.22;;
76290;SDS011;65100;46.884;17.410;2023-07-20T07:27:23;7.53;;;4.27;;
76290;SDS011;65100;46.884;17.410;2023-07-20T07:29:48;7.60;;;4.00;;
76290;SDS011;65100;46.884;17.410;2023-07-20T07:32:14;8.17;;;4.40;;
76290;SDS011;65100;46.884;17.410;2023-07-20T07:34:40;7.50;;;4.00;;
76290;SDS011;65100;46.884;17.410;2023-07-20T07:37:06;8.67;;;4.13;;
76290;SDS011;65100;46.884;17.410;2023-07-20T07:39:31;7.60;;;3.88;;
76290;SDS011;65100;46.884;17.410;2023-07-20T07:41:57;8.07;;;4.13;;
76290;SDS011;65100;46.884;17.410;2023-07-20T07:44:23;8.10;;;4.47;;
76290;SDS011;65100;46.884;17.410;2023-07-20T07:46:48;8.77;;;4.45;;
76290;SDS011;65100;46.884;17.410;2023-07-20T07:49:15;8.65;;;4.35;;
76290;SDS011;65100;46.884;17.410;2023-07-20T07:51:40;8.38;;;4.28;;
76290;SDS011;65100;46.884;17.410;2023-07-20T07:54:06;9.33;;;4.37;;
76290;SDS011;65100;46.884;17.410;2023-07-20T07:56:31;11.97;;;4.30;;
76290;SDS011;65100;46.884;17.410;2023-07-20T07:58:57;8.75;;;4.22;;
76290;SDS011;65100;46.884;17.410;2023-07-20T08:01:22;8.40;;;4.40;;
76290;SDS011;65100;46.884;17.410;2023-07-20T08:03:48;8.70;;;4.20;;
76290;SDS011;65100;46.884;17.410;2023-07-20T08:06:14;7.57;;;4.20;;
76290;SDS011;65100;46.884;17.410;2023-07-20T08:08:42;7.97;;;4.17;;
76290;SDS011;65100;46.884;17.410;2023-07-20T08:11:08;9.20;;;4.18;;
76290;SDS011;65100;46.884;17.410;2023-07-20T08:13:34;10.83;;;4.50;;
76290;SDS011;65100;46.884;17.410;2023-07-20T08:16:00;7.53;;;4.10;;
76290;SDS011;65100;46.884;17.410;2023-07-20T08:18:27;7.72;;;4.18;;
76290;SDS011;65100;46.884;17.410;2023-07-20T08:20:53;8.43;;;4.00;;
76290;SDS011;65100;46.884;17.410;2023-07-20T08:23:19;8.18;;;4.30;;
76290;SDS011;65100;46.884;17.410;2023-07-20T08:25:47;8.13;;;4.57;;
76290;SDS011;65100;46.884;17.410;2023-07-20T08:28:14;8.73;;;4.40;;
76290;SDS011;65100;46.884;17.410;2023-07-20T08:30:41;9.60;;;4.50;;
76290;SDS011;65100;46.884;17.410;2023-07-20T08:33:08;9.45;;;4.50;;
76290;SDS011;65100;46.884;17.410;2023-07-20T08:35:34;7.82;;;4.30;;
76290;SDS011;65100;46.884;17.410;2023-07-20T08:37:59;7.40;;;4.03;;
76290;SDS011;65100;46.884;17.410;2023-07-20T08:40:24;8.43;;;4.23;;
76290;SDS011;65100;46.884;17.410;2023-07-20T08:42:50;7.37;;;3.73;;
76290;SDS011;65100;46.884;17.410;2023-07-20T08:45:17;8.63;;;4.15;;
76290;SDS011;65100;46.884;17.410;2023-07-20T08:47:43;6.80;;;3.55;;
76290;SDS011;65100;46.884;17.410;2023-07-20T08:50:12;8.70;;;3.93;;
76290;SDS011;65100;46.884;17.410;2023-07-20T08:52:38;7.80;;;3.63;;
76290;SDS011;65100;46.884;17.410;2023-07-20T08:55:04;7.97;;;3.83;;
76290;SDS011;65100;46.884;17.410;2023-07-20T08:57:31;7.13;;;3.80;;
76290;SDS011;65100;46.884;17.410;2023-07-20T08:59:59;7.90;;;3.67;;
76290;SDS011;65100;46.884;17.410;2023-07-20T09:02:29;7.35;;;3.70;;
76290;SDS011;65100;46.884;17.410;2023-07-20T09:05:00;7.22;;;3.78;;
76290;SDS011;65100;46.884;17.410;2023-07-20T09:07:25;9.00;;;4.00;;
76290;SDS011;65100;46.884;17.410;2023-07-20T09:12:58;7.20;;;3.77;;
76290;SDS011;65100;46.884;17.410;2023-07-20T09:15:24;7.75;;;3.47;;
76290;SDS011;65100;46.884;17.410;2023-07-20T09:17:50;8.05;;;3.60;;
76290;SDS011;65100;46.884;17.410;2023-07-20T09:20:18;8.73;;;3.63;;
76290;SDS011;65100;46.884;17.410;2023-07-20T09:22:44;7.63;;;3.57;;
76290;SDS011;65100;46.884;17.410;2023-07-20T09:25:11;8.05;;;3.50;;
76290;SDS011;65100;46.884;17.410;2023-07-20T09:27:44;6.28;;;3.28;;
76290;SDS011;65100;46.884;17.410;2023-07-20T09:30:11;6.75;;;3.60;;
76290;SDS011;65100;46.884;17.410;2023-07-20T09:32:39;7.85;;;3.80;;
76290;SDS011;65100;46.884;17.410;2023-07-20T09:35:15;8.97;;;3.73;;
76290;SDS011;65100;46.884;17.410;2023-07-20T09:37:45;7.88;;;3.72;;
76290;SDS011;65100;46.884;17.410;2023-07-20T09:40:24;7.43;;;3.70;;
76290;SDS011;65100;46.884;17.410;2023-07-20T09:42:54;8.48;;;3.80;;
76290;SDS011;65100;46.884;17.410;2023-07-20T09:48:24;6.97;;;3.20;;
76290;SDS011;65100;46.884;17.410;2023-07-20T09:50:50;9.23;;;3.40;;
76290;SDS011;65100;46.884;17.410;2023-07-20T09:53:16;6.55;;;3.30;;
76290;SDS011;65100;46.884;17.410;2023-07-20T09:55:44;8.07;;;3.55;;
76290;SDS011;65100;46.884;17.410;2023-07-20T09:58:10;8.85;;;3.40;;
76290;SDS011;65100;46.884;17.410;2023-07-20T10:00:36;7.93;;;3.00;;
76290;SDS011;65100;46.884;17.410;2023-07-20T10:03:06;6.65;;;2.80;;
76290;SDS011;65100;46.884;17.410;2023-07-20T10:05:32;6.43;;;2.80;;
76290;SDS011;65100;46.884;17.410;2023-07-20T10:08:00;8.23;;;2.83;;
76290;SDS011;65100;46.884;17.410;2023-07-20T10:10:28;6.70;;;2.58;;
76290;SDS011;65100;46.884;17.410;2023-07-20T10:12:54;7.03;;;3.45;;
76290;SDS011;65100;46.884;17.410;2023-07-20T10:15:32;8.32;;;3.00;;
76290;SDS011;65100;46.884;17.410;2023-07-20T10:20:39;6.47;;;2.97;;
76290;SDS011;65100;46.884;17.410;2023-07-20T10:23:08;7.30;;;3.30;;
76290;SDS011;65100;46.884;17.410;2023-07-20T10:25:35;8.95;;;3.45;;
76290;SDS011;65100;46.884;17.410;2023-07-20T10:28:05;6.28;;;2.88;;
76290;SDS011;65100;46.884;17.410;2023-07-20T10:30:31;9.25;;;3.10;;
76290;SDS011;65100;46.884;17.410;2023-07-20T10:33:02;6.83;;;2.53;;
76290;SDS011;65100;46.884;17.410;2023-07-20T10:35:28;5.97;;;2.53;;
76290;SDS011;65100;46.884;17.410;2023-07-20T10:37:54;6.30;;;2.47;;
76290;SDS011;65100;46.884;17.410;2023-07-20T10:40:34;6.05;;;2.40;;
76290;SDS011;65100;46.884;17.410;2023-07-20T10:43:04;7.30;;;2.53;;
76290;SDS011;65100;46.884;17.410;2023-07-20T10:48:14;6.07;;;2.50;;
76290;SDS011;65100;46.884;17.410;2023-07-20T10:50:44;5.45;;;2.28;;
76290;SDS011;65100;46.884;17.410;2023-07-20T10:53:12;6.20;;;2.42;;
76290;SDS011;65100;46.884;17.410;2023-07-20T10:55:38;6.25;;;2.72;;
76290;SDS011;65100;46.884;17.410;2023-07-20T10:58:07;7.03;;;2.73;;
76290;SDS011;65100;46.884;17.410;2023-07-20T11:00:34;6.88;;;2.75;;
76290;SDS011;65100;46.884;17.410;2023-07-20T11:03:01;7.53;;;2.70;;
76290;SDS011;65100;46.884;17.410;2023-07-20T11:05:39;7.50;;;2.70;;
76290;SDS011;65100;46.884;17.410;2023-07-20T11:08:06;5.78;;;2.72;;
76290;SDS011;65100;46.884;17.410;2023-07-20T11:10:35;6.13;;;3.03;;
76290;SDS011;65100;46.884;17.410;2023-07-20T11:13:20;6.40;;;2.95;;
76290;SDS011;65100;46.884;17.410;2023-07-20T11:15:53;6.32;;;2.80;;
76290;SDS011;65100;46.884;17.410;2023-07-20T11:18:28;5.60;;;2.70;;
76290;SDS011;65100;46.884;17.410;2023-07-20T11:20:54;5.55;;;2.70;;
76290;SDS011;65100;46.884;17.410;2023-07-20T11:23:20;5.57;;;2.50;;
76290;SDS011;65100;46.884;17.410;2023-07-20T11:25:46;5.47;;;2.40;;
76290;SDS011;65100;46.884;17.410;2023-07-20T11:28:12;7.47;;;2.90;;
76290;SDS011;65100;46.884;17.410;2023-07-20T11:30:37;5.87;;;2.57;;
76290;SDS011;65100;46.884;17.410;2023-07-20T11:33:04;7.75;;;2.95;;
76290;SDS011;65100;46.884;17.410;2023-07-20T11:35:30;6.00;;;2.83;;
76290;SDS011;65100;46.884;17.410;2023-07-20T11:37:56;7.10;;;2.97;;
76290;SDS011;65100;46.884;17.410;2023-07-20T11:40:22;7.13;;;3.10;;
76290;SDS011;65100;46.884;17.410;2023-07-20T11:42:51;6.78;;;2.97;;
76290;SDS011;65100;46.884;17.410;2023-07-20T11:45:17;8.45;;;2.90;;
76290;SDS011;65100;46.884;17.410;2023-07-20T11:47:43;6.28;;;2.90;;
76290;SDS011;65100;46.884;17.410;2023-07-20T11:50:09;6.73;;;2.87;;
76290;SDS011;65100;46.884;17.410;2023-07-20T11:52:36;6.00;;;2.75;;
76290;SDS011;65100;46.884;17.410;2023-07-20T11:55:02;7.05;;;3.00;;
76290;SDS011;65100;46.884;17.410;2023-07-20T11:57:28;5.90;;;2.75;;
76290;SDS011;65100;46.884;17.410;2023-07-20T11:59:54;8.80;;;2.77;;
76290;SDS011;65100;46.884;17.410;2023-07-20T12:02:22;6.35;;;2.72;;
76290;SDS011;65100;46.884;17.410;2023-07-20T12:04:50;6.65;;;2.83;;
76290;SDS011;65100;46.884;17.410;2023-07-20T12:07:16;5.70;;;2.80;;
76290;SDS011;65100;46.884;17.410;2023-07-20T12:09:41;7.20;;;2.75;;
76290;SDS011;65100;46.884;17.410;2023-07-20T12:12:10;6.20;;;2.80;;
76290;SDS011;65100;46.884;17.410;2023-07-20T12:14:38;5.85;;;2.80;;
76290;SDS011;65100;46.884;17.410;2023-07-20T12:17:04;6.15;;;2.75;;
76290;SDS011;65100;46.884;17.410;2023-07-20T12:19:37;6.27;;;2.63;;
76290;SDS011;65100;46.884;17.410;2023-07-20T12:22:04;5.90;;;2.70;;
76290;SDS011;65100;46.884;17.410;2023-07-20T12:24:29;6.13;;;2.60;;
76290;SDS011;65100;46.884;17.410;2023-07-20T12:26:58;6.07;;;2.93;;
76290;SDS011;65100;46.884;17.410;2023-07-20T12:29:23;5.53;;;2.70;;
76290;SDS011;65100;46.884;17.410;2023-07-20T12:31:49;6.03;;;2.87;;
76290;SDS011;65100;46.884;17.410;2023-07-20T12:34:14;9.70;;;3.13;;
76290;SDS011;65100;46.884;17.410;2023-07-20T12:36:40;7.28;;;3.00;;
76290;SDS011;65100;46.884;17.410;2023-07-20T12:39:05;6.60;;;3.10;;
76290;SDS011;65100;46.884;17.410;2023-07-20T12:41:31;6.53;;;3.10;;
76290;SDS011;65100;46.884;17.410;2023-07-20T12:43:56;7.95;;;3.13;;
76290;SDS011;65100;46.884;17.410;2023-07-20T12:46:25;8.20;;;3.20;;
76290;SDS011;65100;46.884;17.410;2023-07-20T12:48:50;7.05;;;3.42;;
76290;SDS011;65100;46.884;17.410;2023-07-20T12:51:16;7.50;;;3.10;;
76290;SDS011;65100;46.884;17.410;2023-07-20T12:53:42;7.30;;;3.40;;
76290;SDS011;65100;46.884;17.410;2023-07-20T12:56:09;6.00;;;2.80;;
76290;SDS011;65100;46.884;17.410;2023-07-20T12:58:34;6.85;;;3.35;;
76290;SDS011;65100;46.884;17.410;2023-07-20T13:01:01;6.88;;;3.05;;
76290;SDS011;65100;46.884;17.410;2023-07-20T13:03:27;6.70;;;3.33;;
76290;SDS011;65100;46.884;17.410;2023-07-20T13:05:53;8.65;;;3.13;;
76290;SDS011;65100;46.884;17.410;2023-07-20T13:08:18;8.17;;;3.33;;
76290;SDS011;65100;46.884;17.410;2023-07-20T13:10:44;7.18;;;3.30;;
76290;SDS011;65100;46.884;17.410;2023-07-20T13:13:10;6.30;;;3.10;;
76290;SDS011;65100;46.884;17.410;2023-07-20T13:15:42;6.20;;;3.00;;
76290;SDS011;65100;46.884;17.410;2023-07-20T13:18:09;6.88;;;3.13;;
76290;SDS011;65100;46.884;17.410;2023-07-20T13:20:34;6.90;;;3.50;;
76290;SDS011;65100;46.884;17.410;2023-07-20T13:23:00;6.95;;;3.53;;
76290;SDS011;65100;46.884;17.410;2023-07-20T13:25:25;7.07;;;3.20;;
76290;SDS011;65100;46.884;17.410;2023-07-20T13:27:51;7.17;;;3.30;;
76290;SDS011;65100;46.884;17.410;2023-07-20T13:30:16;6.65;;;3.20;;
76290;SDS011;65100;46.884;17.410;2023-07-20T13:32:42;6.00;;;2.83;;
76290;SDS011;65100;46.884;17.410;2023-07-20T13:35:09;6.95;;;3.10;;
76290;SDS011;65100;46.884;17.410;2023-07-20T13:37:35;7.03;;;3.13;;
76290;SDS011;65100;46.884;17.410;2023-07-20T13:40:00;6.87;;;3.40;;
76290;SDS011;65100;46.884;17.410;2023-07-20T13:42:26;6.72;;;2.97;;
76290;SDS011;65100;46.884;17.410;2023-07-20T13:44:51;6.20;;;3.00;;
76290;SDS011;65100;46.884;17.410;2023-07-20T13:47:17;6.88;;;3.10;;
76290;SDS011;65100;46.884;17.410;2023-07-20T13:49:43;5.77;;;2.90;;
76290;SDS011;65100;46.884;17.410;2023-07-20T13:52:09;5.80;;;2.90;;
76290;SDS011;65100;46.884;17.410;2023-07-20T13:54:34;7.13;;;2.80;;
76290;SDS011;65100;46.884;17.410;2023-07-20T13:57:00;5.90;;;2.70;;
76290;SDS011;65100;46.884;17.410;2023-07-20T13:59:25;8.13;;;2.90;;
76290;SDS011;65100;46.884;17.410;2023-07-20T14:01:51;6.40;;;2.80;;
76290;SDS011;65100;46.884;17.410;2023-07-20T14:04:16;6.15;;;2.60;;
76290;SDS011;65100;46.884;17.410;2023-07-20T14:06:42;6.10;;;2.60;;
76290;SDS011;65100;46.884;17.410;2023-07-20T14:09:08;9.23;;;2.90;;
76290;SDS011;65100;46.884;17.410;2023-07-20T14:11:33;6.57;;;2.70;;
76290;SDS011;65100;46.884;17.410;2023-07-20T14:13:59;6.17;;;2.50;;
76290;SDS011;65100;46.884;17.410;2023-07-20T14:16:24;5.78;;;2.33;;
76290;SDS011;65100;46.884;17.410;2023-07-20T14:18:50;6.47;;;2.37;;
76290;SDS011;65100;46.884;17.410;2023-07-20T14:21:16;6.03;;;2.30;;
76290;SDS011;65100;46.884;17.410;2023-07-20T14:23:46;5.10;;;2.20;;
76290;SDS011;65100;46.884;17.410;2023-07-20T14:26:14;9.05;;;2.47;;
76290;SDS011;65100;46.884;17.410;2023-07-20T14:28:40;6.13;;;2.50;;
76290;SDS011;65100;46.884;17.410;2023-07-20T14:31:05;5.43;;;2.43;;
76290;SDS011;65100;46.884;17.410;2023-07-20T14:33:34;6.10;;;2.30;;
76290;SDS011;65100;46.884;17.410;2023-07-20T14:36:00;5.37;;;2.53;;
76290;SDS011;65100;46.884;17.410;2023-07-20T14:38:27;6.25;;;2.60;;
76290;SDS011;65100;46.884;17.410;2023-07-20T14:40:56;6.93;;;2.20;;
76290;SDS011;65100;46.884;17.410;2023-07-20T14:43:24;6.07;;;2.40;;
76290;SDS011;65100;46.884;17.410;2023-07-20T14:45:49;5.70;;;2.30;;
76290;SDS011;65100;46.884;17.410;2023-07-20T14:48:19;5.70;;;2.20;;
76290;SDS011;65100;46.884;17.410;2023-07-20T14:50:45;5.70;;;2.47;;